Clifford A. Barnes — WRN5495 — position and weather

sailwx.info

Track history (hours):
 
Tides and Currents Weather Stations Pressure Air Temp Water Temp Dewpoint Dewpoint Depression Visibility Wind Speed Wind Dir Waves Ship Positions

Oceanographic research ship Clifford A. Barnes (USA)

Ship's website: http://www.ocean.washington.edu/vessels/CAB/cab.html

Detailed information on ship capabilities available from University of Delaware's Ocean Information Center.

Owner: UNIVERSITY OF WASHINGTON, SEATTLE, WA. More information available from US FCC via Universal Licensing System.

Last reported at 2019-Oct-13 02:01 UTC. Time now 2019-Oct-17 15:07 UTC.
Position N 38°04' W 122°16'.

Length 22 m.

Type: Pleasure craft. MMSI: 366918910.

Date/timePositionNaut miles runAvg speedWind from/ knotsBaromVisibWave heightAir tempDewpointWater temp
2019-Oct-13 02:01N 38°04' W 122°16'0 6.4
2019-Oct-13 02:00N 38°04' W 122°16'3 5.5
2019-Oct-13 01:30N 38°03' W 122°19'5 6.3
2019-Oct-13 00:43N 37°60' W 122°24'2 7.3
2019-Oct-13 00:30N 37°58' W 122°26'3 6.7
2019-Oct-13 00:00N 37°55' W 122°26'3 6.5
2019-Oct-12 23:30N 37°52' W 122°25'3 6.7
2019-Oct-12 23:00N 37°49' W 122°27'0 0.8
2019-Oct-12 22:30N 37°49' W 122°27'0 0.1
2019-Oct-12 22:00N 37°49' W 122°27'0 0.2
2019-Oct-12 21:30N 37°49' W 122°27'1 2.9
2019-Oct-12 21:01N 37°49' W 122°25'1 1.7
2019-Oct-12 20:30N 37°49' W 122°24'3 5.8
2019-Oct-12 20:00N 37°52' W 122°25'4 7.0
2019-Oct-12 19:30N 37°56' W 122°26'4 6.5
2019-Oct-12 18:48N 37°60' W 122°24'5 6.2
2019-Oct-12 18:02N 38°02' W 122°19'0 7.1
2019-Oct-12 17:59N 38°03' W 122°19'4 6.3
2019-Oct-12 17:24N 38°05' W 122°15'  
2019-Oct-03 04:56N 38°06' W 122°16'0 0.0
2019-Oct-03 04:29N 38°06' W 122°16'0 0.0
2019-Oct-03 03:56N 38°06' W 122°16'0 0.0
2019-Oct-03 03:29N 38°06' W 122°16'  
Track history (hours):
 
Tides and Currents Weather Stations Pressure Air Temp Water Temp Dewpoint Dewpoint Depression Visibility Wind Speed Wind Dir Waves Ship Positions

Oceanographic research ship Clifford A. Barnes (USA)

Ship's website: http://www.ocean.washington.edu/vessels/CAB/cab.html

Detailed information on ship capabilities available from University of Delaware's Ocean Information Center.

Owner: UNIVERSITY OF WASHINGTON, SEATTLE, WA. More information available from US FCC via Universal Licensing System.

Last reported at 2019-Oct-13 02:01 UTC. Time now 2019-Oct-17 15:07 UTC.
Position N 38°04' W 122°16'.

Length 22 m.

Type: Pleasure craft. MMSI: 366918910.

Date/timePositionNaut miles runAvg speedWind from/ knotsBaromVisibWave heightAir tempDewpointWater temp
2019-Oct-13 02:01N 38°04' W 122°16'0 6.4
2019-Oct-13 02:00N 38°04' W 122°16'3 5.5
2019-Oct-13 01:30N 38°03' W 122°19'5 6.3
2019-Oct-13 00:43N 37°60' W 122°24'2 7.3
2019-Oct-13 00:30N 37°58' W 122°26'3 6.7
2019-Oct-13 00:00N 37°55' W 122°26'3 6.5
2019-Oct-12 23:30N 37°52' W 122°25'3 6.7
2019-Oct-12 23:00N 37°49' W 122°27'0 0.8
2019-Oct-12 22:30N 37°49' W 122°27'0 0.1
2019-Oct-12 22:00N 37°49' W 122°27'0 0.2
2019-Oct-12 21:30N 37°49' W 122°27'1 2.9
2019-Oct-12 21:01N 37°49' W 122°25'1 1.7
2019-Oct-12 20:30N 37°49' W 122°24'3 5.8
2019-Oct-12 20:00N 37°52' W 122°25'4 7.0
2019-Oct-12 19:30N 37°56' W 122°26'4 6.5
2019-Oct-12 18:48N 37°60' W 122°24'5 6.2
2019-Oct-12 18:02N 38°02' W 122°19'0 7.1
2019-Oct-12 17:59N 38°03' W 122°19'4 6.3
2019-Oct-12 17:24N 38°05' W 122°15'  
2019-Oct-03 04:56N 38°06' W 122°16'0 0.0
2019-Oct-03 04:29N 38°06' W 122°16'0 0.0
2019-Oct-03 03:56N 38°06' W 122°16'0 0.0
2019-Oct-03 03:29N 38°06' W 122°16'  

Dump ship's entire track history